Time;durP1;ratioP1;P1;durP2;ratioP2;P2;SDS_P1;SDS_P2;PMS_P1;PMS_P2;Temp;Humidity;BMP_temperature;BMP_pressure;BME280_temperature;BME280_humidity;BME280_pressure;Samples;Min_cycle;Max_cycle;Signal;HPM_P1;HPM_P2
2022/05/05 00:00:06;;;;;;;12.25;9.50;;;;;;;22.85;41.74;99644.00;344629;28;1032;-87
2022/05/05 00:00:18;;;;;;;11.73;9.60;;;;;;;22.85;41.94;99646.63;343044;28;1163;-87
2022/05/05 00:00:30;;;;;;;11.05;9.50;;;;;;;22.85;41.71;99646.63;343684;28;956;-87
2022/05/05 00:00:42;;;;;;;13.02;9.98;;;;;;;22.85;41.73;99641.34;343270;28;1308;-87
2022/05/05 00:00:54;;;;;;;13.13;9.93;;;;;;;22.79;42.01;99648.00;343448;28;1108;-87
2022/05/05 00:01:07;;;;;;;12.45;10.15;;;;;;;22.83;41.65;99641.47;344603;28;1056;-87
2022/05/05 00:01:19;;;;;;;12.48;10.23;;;;;;;22.78;42.28;99645.47;343516;28;1115;-87
2022/05/05 00:01:32;;;;;;;13.00;10.38;;;;;;;22.78;41.79;99642.81;343670;28;912;-87
2022/05/05 00:01:44;;;;;;;13.32;10.40;;;;;;;22.73;41.90;99644.03;343698;28;1445;-87
2022/05/05 00:01:57;;;;;;;13.65;10.25;;;;;;;22.72;41.63;99637.06;343768;28;970;-87
2022/05/05 00:02:09;;;;;;;13.20;10.38;;;;;;;22.76;41.52;99644.75;340468;29;1721;-87
2022/05/05 00:02:21;;;;;;;12.70;10.18;;;;;;;22.73;41.91;99638.72;340794;29;1055;-87
2022/05/05 00:02:35;;;;;;;12.85;10.25;;;;;;;22.54;42.05;99638.59;343361;28;1150;-87
2022/05/05 00:02:47;;;;;;;13.38;10.23;;;;;;;22.58;41.76;99642.69;344794;28;1155;-87
2022/05/05 00:02:59;;;;;;;13.40;10.27;;;;;;;22.63;42.00;99637.81;342549;28;946;-87
2022/05/05 00:03:11;;;;;;;12.48;10.15;;;;;;;22.66;42.09;99640.22;344111;28;886;-88
2022/05/05 00:03:23;;;;;;;11.90;9.90;;;;;;;22.69;41.92;99642.59;343736;28;1762;-87
2022/05/05 00:03:36;;;;;;;11.27;9.70;;;;;;;22.67;41.76;99639.25;345232;28;992;-88
2022/05/05 00:03:48;;;;;;;11.43;9.68;;;;;;;22.68;41.99;99640.94;343270;28;1364;-87
2022/05/05 00:04:01;;;;;;;11.90;9.63;;;;;;;22.67;41.78;99639.25;342397;28;1874;-88
2022/05/05 00:04:13;;;;;;;12.05;9.57;;;;;;;22.67;41.71;99649.84;341983;28;1661;-87
2022/05/05 00:04:25;;;;;;;12.35;9.77;;;;;;;22.46;41.92;99639.22;342321;28;1051;-87
2022/05/05 00:04:38;;;;;;;12.30;10.05;;;;;;;22.61;42.22;99644.22;342521;28;1075;-87
2022/05/05 00:04:50;;;;;;;11.48;10.05;;;;;;;22.65;41.73;99641.19;342271;28;1011;-87
2022/05/05 00:05:04;;;;;;;11.35;9.98;;;;;;;22.64;41.51;99636.88;343827;28;861;-87
2022/05/05 00:05:16;;;;;;;12.68;10.00;;;;;;;22.54;41.80;99643.91;343747;28;1721;-87
2022/05/05 00:05:28;;;;;;;13.25;10.23;;;;;;;22.58;41.67;99640.03;344291;28;1620;-87
2022/05/05 00:05:40;;;;;;;14.05;10.20;;;;;;;22.60;41.75;99635.44;345739;28;744;-87
2022/05/05 00:05:52;;;;;;;14.02;10.25;;;;;;;22.58;41.89;99633.88;346112;28;1080;-87
2022/05/05 00:06:04;;;;;;;13.23;9.93;;;;;;;22.64;41.66;99642.16;343617;28;1213;-87
2022/05/05 00:06:16;;;;;;;12.63;10.05;;;;;;;22.61;41.81;99636.28;343842;28;856;-88
2022/05/05 00:06:28;;;;;;;12.52;10.45;;;;;;;22.62;41.89;99638.81;343444;28;1531;-87
2022/05/05 00:06:40;;;;;;;12.30;10.40;;;;;;;22.62;41.81;99641.47;343777;28;988;-88
2022/05/05 00:06:52;;;;;;;11.70;10.23;;;;;;;22.64;41.78;99636.88;342268;28;1147;-88
2022/05/05 00:07:05;;;;;;;12.07;10.38;;;;;;;22.67;41.71;99638.41;343791;28;876;-87
2022/05/05 00:07:17;;;;;;;12.65;10.57;;;;;;;22.68;41.64;99638.28;343055;28;1987;-86
2022/05/05 00:07:29;;;;;;;13.43;10.70;;;;;;;22.69;41.68;99631.19;344801;28;1103;-88
2022/05/05 00:07:41;;;;;;;13.30;10.70;;;;;;;22.68;41.56;99640.13;345347;28;740;-87
2022/05/05 00:07:53;;;;;;;13.68;10.73;;;;;;;22.64;41.79;99639.53;344894;28;1075;-87
2022/05/05 00:08:07;;;;;;;14.05;11.10;;;;;;;22.64;41.60;99634.22;344995;28;1463;-87
2022/05/05 00:08:19;;;;;;;14.52;11.27;;;;;;;22.72;41.39;99637.06;346028;28;965;-88
2022/05/05 00:08:31;;;;;;;14.25;11.02;;;;;;;22.70;41.92;99639.00;346861;28;1041;-87
2022/05/05 00:08:43;;;;;;;13.75;10.93;;;;;;;22.76;41.82;99636.78;344013;28;748;-87
2022/05/05 00:08:55;;;;;;;14.00;11.35;;;;;;;22.80;41.38;99639.09;343834;28;902;-86
2022/05/05 00:09:07;;;;;;;14.15;11.00;;;;;;;22.86;41.51;99640.38;342982;28;753;-88
2022/05/05 00:09:19;;;;;;;13.40;10.73;;;;;;;22.88;41.43;99643.75;343752;28;1027;-87
2022/05/05 00:09:31;;;;;;;13.23;10.60;;;;;;;22.91;41.46;99638.16;343366;28;1213;-87
2022/05/05 00:09:43;;;;;;;13.18;10.52;;;;;;;22.94;41.26;99640.56;342411;28;1127;-87
2022/05/05 00:09:55;;;;;;;14.68;10.93;;;;;;;22.94;41.27;99635.28;343777;28;982;-87
2022/05/05 00:14:31;;;;;;;13.45;10.40;;;;;;;22.82;41.37;99636.28;345047;28;1168;-87
2022/05/05 00:14:43;;;;;;;12.23;10.07;;;;;;;22.77;41.42;99635.84;344884;28;1116;-87
2022/05/05 00:14:55;;;;;;;11.25;9.43;;;;;;;22.74;41.38;99639.59;346154;28;1218;-87
2022/05/05 00:15:08;;;;;;;10.90;9.50;;;;;;;22.79;41.49;99641.84;344596;28;965;-86
2022/05/05 00:15:20;;;;;;;11.43;9.52;;;;;;;22.76;41.41;99642.09;345159;28;1952;-87
2022/05/05 00:15:32;;;;;;;13.63;9.75;;;;;;;22.74;41.66;99645.72;343859;28;1054;-87
2022/05/05 00:15:45;;;;;;;13.52;9.93;;;;;;;22.71;41.63;99640.66;344756;28;1070;-87
2022/05/05 00:15:57;;;;;;;12.93;10.13;;;;;;;22.72;42.04;99642.38;345272;28;742;-87
2022/05/05 00:16:09;;;;;;;12.20;10.20;;;;;;;22.73;41.52;99637.91;345766;28;1071;-87
2022/05/05 00:16:21;;;;;;;11.13;9.80;;;;;;;22.69;41.95;99642.59;344988;28;1785;-87
2022/05/05 00:16:34;;;;;;;11.18;9.77;;;;;;;22.61;42.12;99639.75;344830;28;1145;-87
2022/05/05 00:16:46;;;;;;;12.73;10.38;;;;;;;22.64;41.96;99639.53;346215;28;1172;-87
2022/05/05 00:16:59;;;;;;;13.55;10.68;;;;;;;22.66;42.22;99642.88;345906;28;1191;-87
2022/05/05 00:17:11;;;;;;;13.43;10.70;;;;;;;22.60;42.22;99638.09;345034;28;964;-87
2022/05/05 00:17:25;;;;;;;14.15;10.65;;;;;;;22.65;41.92;99638.53;344552;28;1850;-87
2022/05/05 00:17:37;;;;;;;12.90;10.30;;;;;;;22.64;41.94;99636.88;343898;28;809;-87
2022/05/05 00:17:49;;;;;;;13.20;10.65;;;;;;;22.65;42.22;99646.47;341863;28;842;-87
2022/05/05 00:18:01;;;;;;;14.60;11.32;;;;;;;22.63;42.06;99637.81;341438;28;1192;-87
2022/05/05 00:18:13;;;;;;;14.15;11.10;;;;;;;22.67;41.79;99633.13;339440;29;1186;-87
2022/05/05 00:18:25;;;;;;;13.00;10.77;;;;;;;22.62;42.12;99641.47;340532;28;1051;-87
2022/05/05 00:18:37;;;;;;;12.70;10.60;;;;;;;22.63;42.02;99640.47;342488;28;1103;-87
2022/05/05 00:18:49;;;;;;;13.30;10.95;;;;;;;22.61;42.01;99639.75;345375;28;729;-86
2022/05/05 00:19:01;;;;;;;13.60;11.18;;;;;;;22.53;42.14;99640.38;342583;28;1209;-87
2022/05/05 00:19:13;;;;;;;13.23;11.25;;;;;;;22.53;42.02;99644.84;343092;28;863;-87
2022/05/05 00:19:27;;;;;;;12.73;11.10;;;;;;;22.49;42.32;99638.13;342681;28;1489;-87
2022/05/05 00:19:41;;;;;;;13.75;11.13;;;;;;;22.57;42.18;99637.50;342766;28;1520;-87
2022/05/05 00:19:53;;;;;;;14.35;11.35;;;;;;;22.60;41.96;99642.56;343767;28;972;-87
2022/05/05 00:20:06;;;;;;;13.70;11.30;;;;;;;22.62;42.21;99635.31;343483;28;1064;-87
2022/05/05 00:20:18;;;;;;;12.68;10.70;;;;;;;22.65;42.18;99635.88;342586;28;730;-86
2022/05/05 00:20:30;;;;;;;12.95;10.80;;;;;;;22.58;42.18;99634.72;342390;28;954;-86
2022/05/05 00:20:42;;;;;;;13.45;10.90;;;;;;;22.57;42.14;99634.84;342253;28;1708;-86
2022/05/05 00:20:54;;;;;;;13.80;10.63;;;;;;;22.54;42.07;99635.97;342188;28;1020;-87
2022/05/05 00:21:06;;;;;;;13.75;10.75;;;;;;;22.47;41.97;99632.94;341935;28;1502;-87
2022/05/05 00:21:18;;;;;;;13.90;10.90;;;;;;;22.46;42.12;99635.75;339932;29;1972;-87
2022/05/05 00:21:30;;;;;;;13.40;10.73;;;;;;;22.49;42.15;99632.84;340870;29;1117;-86
2022/05/05 00:21:42;;;;;;;14.70;10.52;;;;;;;22.51;41.90;99633.53;342208;28;1362;-86
2022/05/05 00:21:55;;;;;;;14.93;10.68;;;;;;;22.60;42.06;99632.78;342099;28;1202;-87
2022/05/05 00:22:08;;;;;;;13.85;10.93;;;;;;;22.65;41.69;99632.41;342576;28;776;-87
2022/05/05 00:22:20;;;;;;;13.32;10.95;;;;;;;22.66;41.59;99629.63;341043;28;960;-87
2022/05/05 00:22:32;;;;;;;13.45;11.07;;;;;;;22.69;41.25;99632.00;344506;28;1157;-87
2022/05/05 00:22:44;;;;;;;13.35;11.07;;;;;;;22.69;41.30;99637.31;343429;28;1233;-88
2022/05/05 00:22:56;;;;;;;14.30;11.30;;;;;;;22.68;41.70;99632.16;339716;29;987;-87
2022/05/05 00:23:09;;;;;;;13.68;10.98;;;;;;;22.64;41.54;99631.56;342444;28;828;-87
2022/05/05 00:23:21;;;;;;;13.60;10.68;;;;;;;22.64;41.62;99628.09;342381;28;1816;-87
2022/05/05 00:23:33;;;;;;;14.68;11.00;;;;;;;22.63;41.51;99632.53;344460;28;1205;-86
2022/05/05 00:23:45;;;;;;;16.27;11.20;;;;;;;22.62;41.88;99630.03;345146;28;748;-86
2022/05/05 00:23:57;;;;;;;16.10;11.07;;;;;;;22.64;41.95;99631.56;345038;28;1091;-87
2022/05/05 00:24:09;;;;;;;14.48;10.50;;;;;;;22.66;41.65;99632.28;345583;28;1591;-87
2022/05/05 00:24:21;;;;;;;13.27;10.35;;;;;;;22.63;41.89;99632.53;343901;28;841;-87
2022/05/05 00:24:33;;;;;;;13.20;10.60;;;;;;;22.56;41.96;99631.38;346321;28;1121;-87
2022/05/05 00:24:45;;;;;;;14.73;11.10;;;;;;;22.60;41.55;99632.78;346602;28;728;-87
2022/05/05 00:24:57;;;;;;;14.27;11.20;;;;;;;22.60;41.90;99635.44;345194;28;732;-87
2022/05/05 00:25:09;;;;;;;15.60;11.50;;;;;;;22.60;41.84;99632.78;343856;28;744;-88
2022/05/05 00:25:21;;;;;;;14.63;11.35;;;;;;;22.53;41.63;99636.91;342876;28;1152;-87
2022/05/05 00:25:33;;;;;;;14.70;11.55;;;;;;;22.51;42.09;99633.53;342219;28;1287;-87
2022/05/05 00:25:45;;;;;;;15.65;11.70;;;;;;;22.54;41.72;99628.84;342355;28;929;-88
2022/05/05 00:25:57;;;;;;;16.02;11.73;;;;;;;22.51;41.81;99630.91;343519;28;1205;-87
2022/05/05 00:26:09;;;;;;;16.80;11.65;;;;;;;22.49;41.97;99630.19;342242;28;1028;-87
2022/05/05 00:26:22;;;;;;;15.93;11.82;;;;;;;22.45;41.67;99624.28;341979;28;1906;-87
2022/05/05 00:26:34;;;;;;;14.57;12.20;;;;;;;22.49;41.99;99633.66;342664;28;1030;-88
2022/05/05 00:26:46;;;;;;;14.40;11.77;;;;;;;22.52;41.71;99636.06;343253;28;1543;-87
2022/05/05 00:26:58;;;;;;;13.20;10.85;;;;;;;22.57;41.93;99635.69;343431;28;1334;-88
2022/05/05 00:27:10;;;;;;;12.82;10.70;;;;;;;22.62;41.94;99630.03;343508;28;1075;-87
2022/05/05 00:27:23;;;;;;;13.40;11.02;;;;;;;22.62;41.88;99628.22;341115;28;1032;-87
2022/05/05 00:27:35;;;;;;;14.20;10.80;;;;;;;22.63;42.07;99627.22;341084;28;1071;-86
2022/05/05 00:27:47;;;;;;;13.98;10.73;;;;;;;22.63;42.03;99631.69;343834;28;984;-87
2022/05/05 00:27:59;;;;;;;12.95;10.50;;;;;;;22.66;42.19;99626.97;343612;28;1055;-87
2022/05/05 00:28:11;;;;;;;13.27;10.60;;;;;;;22.69;42.04;99626.72;344617;28;1969;-86
2022/05/05 00:28:23;;;;;;;13.65;11.02;;;;;;;22.66;42.08;99626.16;346877;28;846;-86
2022/05/05 00:28:35;;;;;;;13.50;11.05;;;;;;;22.71;41.75;99630.06;344062;28;1199;-86
2022/05/05 00:28:47;;;;;;;12.38;10.73;;;;;;;22.72;41.75;99631.78;345279;28;752;-86
2022/05/05 00:28:59;;;;;;;11.93;10.30;;;;;;;22.74;42.02;99627.19;345126;28;1052;-87
2022/05/05 00:29:12;;;;;;;13.23;10.80;;;;;;;22.68;41.95;99627.69;345807;28;736;-87
2022/05/05 00:29:24;;;;;;;14.20;11.18;;;;;;;22.73;41.44;99627.31;345558;28;1365;-87
2022/05/05 00:29:36;;;;;;;15.07;11.68;;;;;;;22.78;41.67;99624.25;343538;28;1181;-87
2022/05/05 00:29:49;;;;;;;14.05;11.48;;;;;;;22.79;41.57;99621.47;341842;28;1027;-87
2022/05/05 00:30:02;;;;;;;14.05;11.38;;;;;;;22.78;41.64;99624.25;341073;29;984;-87
2022/05/05 00:30:14;;;;;;;13.75;10.98;;;;;;;22.79;41.59;99628.59;340496;29;1740;-87
2022/05/05 00:30:26;;;;;;;14.52;11.07;;;;;;;22.70;41.92;99625.75;342427;28;1124;-87
2022/05/05 00:30:38;;;;;;;13.95;11.40;;;;;;;22.74;41.58;99627.19;340968;28;1371;-86
2022/05/05 00:30:50;;;;;;;14.05;11.98;;;;;;;22.72;41.81;99626.47;341247;29;750;-87
2022/05/05 00:31:02;;;;;;;14.27;11.82;;;;;;;22.74;41.60;99624.53;341198;29;988;-87
2022/05/05 00:31:14;;;;;;;14.75;11.82;;;;;;;22.73;41.46;99627.31;341137;29;994;-87
2022/05/05 00:31:26;;;;;;;15.35;12.07;;;;;;;22.74;41.59;99629.84;340693;29;1110;-86
2022/05/05 00:31:38;;;;;;;15.30;12.43;;;;;;;22.73;41.88;99629.94;340902;29;1097;-87
2022/05/05 00:31:51;;;;;;;16.63;12.15;;;;;;;22.74;41.85;99629.84;343566;28;861;-86
2022/05/05 00:32:03;;;;;;;16.55;12.35;;;;;;;22.78;41.68;99625.13;341326;29;1072;-87
2022/05/05 00:32:15;;;;;;;15.52;12.07;;;;;;;22.77;41.57;99622.59;340962;29;1432;-86
2022/05/05 00:32:27;;;;;;;15.50;11.90;;;;;;;22.74;41.74;99629.84;342397;28;889;-87
2022/05/05 00:32:39;;;;;;;16.38;12.10;;;;;;;22.52;42.05;99620.19;341233;28;1172;-86
2022/05/05 00:32:51;;;;;;;17.70;12.70;;;;;;;22.59;41.73;99625.81;341057;29;2071;-87
2022/05/05 00:33:03;;;;;;;17.60;12.68;;;;;;;22.63;41.60;99629.88;341208;29;881;-86
2022/05/05 00:33:15;;;;;;;16.70;12.93;;;;;;;22.62;41.74;99630.84;341276;29;773;-87
2022/05/05 00:33:27;;;;;;;16.13;13.10;;;;;;;22.58;41.80;99618.84;340390;28;1046;-86
2022/05/05 00:33:39;;;;;;;17.58;13.20;;;;;;;22.57;42.25;99622.44;342347;28;1093;-86
2022/05/05 00:33:51;;;;;;;17.50;12.98;;;;;;;22.52;41.98;99622.84;343686;28;849;-86
2022/05/05 00:34:03;;;;;;;16.52;12.80;;;;;;;22.54;41.93;99625.34;343907;28;828;-87
2022/05/05 00:34:16;;;;;;;15.82;12.30;;;;;;;22.61;42.19;99628.34;343461;28;1192;-87
2022/05/05 00:34:28;;;;;;;16.02;12.23;;;;;;;22.66;41.59;99621.69;346325;28;1057;-87
2022/05/05 00:34:40;;;;;;;16.42;12.63;;;;;;;22.64;41.82;99623.63;345457;28;1080;-87
2022/05/05 00:34:52;;;;;;;18.13;12.93;;;;;;;22.60;42.13;99622.19;346477;28;1004;-86
2022/05/05 00:35:05;;;;;;;18.25;13.20;;;;;;;22.65;41.87;99625.28;346076;28;1023;-87
2022/05/05 00:35:17;;;;;;;16.58;12.98;;;;;;;22.62;41.90;99622.91;346528;28;1001;-87
2022/05/05 00:35:29;;;;;;;15.70;12.75;;;;;;;22.57;42.23;99626.91;345630;28;1152;-87
2022/05/05 00:35:41;;;;;;;16.65;13.15;;;;;;;22.59;42.11;99624.97;346744;28;1427;-87
2022/05/05 00:35:53;;;;;;;17.25;13.43;;;;;;;22.62;41.86;99625.56;347439;28;1032;-87
2022/05/05 00:36:05;;;;;;;17.73;12.88;;;;;;;22.65;41.81;99627.94;345093;28;999;-87
2022/05/05 00:36:17;;;;;;;18.23;13.13;;;;;;;22.61;41.96;99634.47;345274;28;737;-86
2022/05/05 00:36:29;;;;;;;18.65;13.27;;;;;;;22.57;41.78;99627.75;344600;28;1249;-86
2022/05/05 00:36:42;;;;;;;17.35;13.10;;;;;;;22.60;41.75;99627.50;345067;28;892;-86
2022/05/05 00:36:54;;;;;;;16.15;13.07;;;;;;;22.60;42.29;99627.50;345060;28;1181;-87
2022/05/05 00:37:06;;;;;;;15.90;13.25;;;;;;;22.65;42.07;99630.59;346143;28;1063;-86
2022/05/05 00:37:18;;;;;;;15.77;13.05;;;;;;;22.68;41.91;99624.22;344830;28;1203;-86
2022/05/05 00:37:30;;;;;;;15.68;12.40;;;;;;;22.74;42.02;99627.19;343380;28;1795;-87
2022/05/05 00:37:42;;;;;;;16.17;12.65;;;;;;;22.77;41.87;99627.91;345335;28;744;-86
2022/05/05 00:37:54;;;;;;;16.70;13.02;;;;;;;22.79;41.72;99623.31;344735;28;1087;-87
2022/05/05 00:38:06;;;;;;;16.67;13.25;;;;;;;22.78;42.05;99624.25;343897;28;748;-86
2022/05/05 00:38:18;;;;;;;16.33;13.27;;;;;;;22.80;41.63;99630.28;345024;28;794;-86
2022/05/05 00:38:30;;;;;;;17.00;13.48;;;;;;;22.77;41.71;99635.84;343212;28;901;-86
2022/05/05 00:38:42;;;;;;;17.35;13.35;;;;;;;22.73;41.61;99629.94;342214;28;1072;-87
2022/05/05 00:38:54;;;;;;;16.92;13.25;;;;;;;22.60;41.96;99630.16;341169;28;992;-86
2022/05/05 00:39:07;;;;;;;16.48;13.13;;;;;;;22.65;42.22;99633.25;339805;29;983;-87
2022/05/05 00:39:20;;;;;;;16.92;13.45;;;;;;;22.65;41.64;99635.88;341252;28;1162;-86
2022/05/05 00:39:31;;;;;;;18.23;13.40;;;;;;;22.72;41.92;99626.47;342294;28;1290;-85
2022/05/05 00:39:43;;;;;;;18.00;13.13;;;;;;;22.76;41.62;99629.72;345236;28;1035;-86
2022/05/05 00:39:55;;;;;;;18.80;12.98;;;;;;;22.73;41.62;99627.31;345499;28;1142;-87
2022/05/05 00:40:08;;;;;;;21.63;13.32;;;;;;;22.67;41.87;99631.31;347807;28;977;-86
2022/05/05 00:40:20;;;;;;;21.45;13.68;;;;;;;22.65;42.00;99625.28;345881;28;1086;-86
2022/05/05 00:40:32;;;;;;;21.75;13.32;;;;;;;22.71;41.73;99629.25;342209;28;1088;-86
2022/05/05 00:40:44;;;;;;;17.85;13.00;;;;;;;22.71;41.76;99635.38;342155;28;1808;-87
2022/05/05 00:40:56;;;;;;;17.02;13.02;;;;;;;22.70;41.61;99631.06;342866;28;1126;-86
2022/05/05 00:41:08;;;;;;;16.70;13.52;;;;;;;22.72;41.46;99631.78;343668;28;887;-87
2022/05/05 00:41:21;;;;;;;17.08;13.95;;;;;;;22.70;41.92;99632.88;343668;28;875;-85
2022/05/05 00:41:38;;;;;;;17.48;13.75;;;;;;;22.64;42.06;99634.22;342145;28;1374;-87
2022/05/05 00:41:51;;;;;;;18.08;13.52;;;;;;;22.69;41.57;99625.88;338453;29;968;-86
2022/05/05 00:42:12;;;;;;;18.15;13.70;;;;;;;22.66;42.31;99634.94;338471;29;1023;-86
2022/05/05 00:42:24;;;;;;;16.55;13.23;;;;;;;22.73;41.74;99638.72;342090;29;1170;-87
2022/05/05 00:42:36;;;;;;;15.77;12.98;;;;;;;22.79;41.49;99631.25;341943;28;827;-87
2022/05/05 00:42:49;;;;;;;16.27;12.90;;;;;;;22.85;41.65;99636.03;341163;29;1209;-87
2022/05/05 00:43:02;;;;;;;16.80;13.25;;;;;;;22.85;41.63;99631.56;341099;29;1063;-87
2022/05/05 00:43:14;;;;;;;16.02;13.00;;;;;;;22.88;41.81;99630.50;342095;28;1960;-87
2022/05/05 00:43:28;;;;;;;15.73;12.32;;;;;;;22.89;41.97;99629.50;341851;28;1756;-87
2022/05/05 00:43:40;;;;;;;15.20;12.48;;;;;;;22.92;41.93;99637.22;343806;28;802;-87
2022/05/05 00:43:53;;;;;;;15.57;12.45;;;;;;;22.93;41.96;99633.56;342535;28;746;-88
2022/05/05 00:44:06;;;;;;;17.88;12.77;;;;;;;22.95;42.02;99636.94;341259;28;1173;-87
2022/05/05 00:44:18;;;;;;;17.10;12.82;;;;;;;22.95;41.53;99631.63;343614;28;799;-87
2022/05/05 00:44:30;;;;;;;14.95;12.50;;;;;;;22.98;41.51;99636.69;343343;28;1891;-87
2022/05/05 00:44:43;;;;;;;14.60;12.10;;;;;;;23.00;41.68;99639.19;344942;28;1700;-86
2022/05/05 00:44:55;;;;;;;15.52;12.55;;;;;;;23.00;41.91;99645.34;345459;28;1108;-86
2022/05/05 00:45:07;;;;;;;15.05;12.60;;;;;;;23.00;41.38;99637.41;346515;28;1163;-87
2022/05/05 00:45:19;;;;;;;15.35;12.85;;;;;;;23.02;41.28;99635.50;346018;28;2292;-88
2022/05/05 00:45:31;;;;;;;15.75;12.95;;;;;;;23.04;41.43;99641.50;345088;28;1759;-86
2022/05/05 00:45:43;;;;;;;17.40;13.25;;;;;;;23.04;41.29;99636.19;345528;28;729;-86
2022/05/05 00:45:56;;;;;;;18.33;13.57;;;;;;;23.07;41.20;99635.09;346464;28;865;-86
2022/05/05 00:46:08;;;;;;;17.52;13.30;;;;;;;23.07;41.12;99640.41;345321;28;2172;-85
2022/05/05 00:46:20;;;;;;;16.35;12.90;;;;;;;23.02;41.51;99638.16;344149;28;1059;-85
2022/05/05 00:46:33;;;;;;;16.67;12.93;;;;;;;23.02;41.73;99640.78;345069;28;1614;-87
2022/05/05 00:46:49;;;;;;;16.35;13.05;;;;;;;23.03;41.62;99634.50;343810;28;850;-88
2022/05/05 00:47:01;;;;;;;14.80;12.68;;;;;;;23.04;41.29;99635.34;343257;28;1816;-88
2022/05/05 00:47:18;;;;;;;14.55;12.63;;;;;;;23.01;41.44;99640.88;343545;28;1546;-88
2022/05/05 00:47:30;;;;;;;15.95;12.43;;;;;;;23.02;41.62;99638.16;344719;28;1097;-88
2022/05/05 00:47:43;;;;;;;17.38;12.65;;;;;;;23.03;41.81;99637.16;345857;28;1123;-87
2022/05/05 00:48:12;;;;;;;18.65;13.20;;;;;;;22.99;41.29;99634.88;344906;28;1091;-88
2022/05/05 00:48:26;;;;;;;16.40;13.70;;;;;;;22.97;41.67;99637.66;345121;28;963;-88
2022/05/05 00:48:38;;;;;;;17.23;13.75;;;;;;;23.00;41.63;99639.19;342372;28;1205;-88
2022/05/05 00:48:50;;;;;;;16.90;13.57;;;;;;;22.82;41.66;99636.28;345256;28;748;-88
2022/05/05 00:49:03;;;;;;;16.90;13.60;;;;;;;22.91;41.91;99636.34;343970;28;1939;-87
2022/05/05 00:49:16;;;;;;;17.13;13.80;;;;;;;22.95;41.78;99636.94;344953;28;1877;-87
2022/05/05 00:49:29;;;;;;;16.77;13.48;;;;;;;22.98;41.64;99636.69;342722;28;1209;-87
2022/05/05 00:49:42;;;;;;;16.48;13.60;;;;;;;22.99;41.23;99638.34;343318;28;1064;-88
2022/05/05 00:49:54;;;;;;;17.55;14.20;;;;;;;23.01;41.45;99631.13;342074;28;1203;-88
2022/05/05 00:50:07;;;;;;;19.23;14.70;;;;;;;23.03;41.20;99634.50;343137;28;1086;-87
2022/05/05 00:50:20;;;;;;;19.58;14.68;;;;;;;23.07;41.54;99643.88;343982;28;1274;-88
2022/05/05 00:50:34;;;;;;;19.15;14.70;;;;;;;23.12;41.28;99641.69;342529;28;1296;-87
2022/05/05 00:50:46;;;;;;;17.83;14.57;;;;;;;23.13;41.09;99638.06;343528;28;1419;-87
2022/05/05 00:50:58;;;;;;;17.48;13.85;;;;;;;23.16;41.23;99638.75;343342;28;1189;-88
2022/05/05 00:51:11;;;;;;;17.60;13.93;;;;;;;23.20;40.84;99634.88;342293;28;1537;-88
2022/05/05 00:51:23;;;;;;;18.02;14.45;;;;;;;23.21;41.01;99636.56;342044;28;1753;-88
2022/05/05 00:51:35;;;;;;;17.80;14.18;;;;;;;23.20;40.92;99640.19;343418;28;1071;-88
2022/05/05 00:51:47;;;;;;;16.88;13.52;;;;;;;23.24;41.16;99633.63;343784;28;832;-88
2022/05/05 00:51:59;;;;;;;17.05;13.32;;;;;;;23.23;41.21;99639.94;341988;28;1063;-88
2022/05/05 00:52:11;;;;;;;17.15;13.73;;;;;;;23.22;41.23;99635.59;342708;28;1098;-88
2022/05/05 00:52:23;;;;;;;16.70;13.73;;;;;;;23.26;40.72;99639.66;340970;28;1800;-87
2022/05/05 00:52:35;;;;;;;16.55;13.70;;;;;;;23.29;40.83;99636.75;342584;28;875;-88
2022/05/05 00:52:47;;;;;;;16.38;13.48;;;;;;;23.30;41.03;99641.06;346267;28;1890;-87
2022/05/05 00:53:00;;;;;;;16.58;13.35;;;;;;;23.28;40.84;99635.06;344794;28;1151;-88
2022/05/05 00:53:12;;;;;;;16.30;13.50;;;;;;;23.30;40.92;99633.13;343524;28;1007;-87
2022/05/05 00:53:24;;;;;;;16.52;13.30;;;;;;;23.28;40.98;99643.88;343839;28;1562;-87
2022/05/05 00:53:36;;;;;;;16.08;13.18;;;;;;;23.28;40.75;99633.28;343707;28;1189;-88
2022/05/05 00:53:49;;;;;;;16.73;13.48;;;;;;;23.31;40.84;99634.81;343635;28;868;-88
2022/05/05 00:54:01;;;;;;;16.88;13.43;;;;;;;23.29;40.82;99636.75;344438;28;1541;-88
2022/05/05 00:54:13;;;;;;;16.45;13.43;;;;;;;23.23;41.01;99645.22;342077;28;1052;-87
2022/05/05 00:54:26;;;;;;;17.17;14.07;;;;;;;23.18;40.57;99636.81;342729;28;1487;-86
2022/05/05 00:54:39;;;;;;;18.70;15.00;;;;;;;23.11;41.17;99647.94;342468;28;1089;-86
2022/05/05 00:54:51;;;;;;;19.85;15.02;;;;;;;23.13;41.06;99642.53;342490;28;776;-88
2022/05/05 00:55:03;;;;;;;19.17;14.45;;;;;;;23.16;41.06;99644.06;341744;28;843;-88
2022/05/05 00:55:16;;;;;;;17.75;14.43;;;;;;;23.11;41.24;99639.16;344593;28;733;-88
2022/05/05 00:55:34;;;;;;;17.92;14.60;;;;;;;23.08;40.91;99637.63;345416;28;1694;-87
2022/05/05 00:55:48;;;;;;;19.95;15.13;;;;;;;22.96;41.56;99638.63;342935;28;875;-89
2022/05/05 00:56:08;;;;;;;20.48;15.27;;;;;;;23.01;40.87;99640.88;343452;28;905;-88
2022/05/05 00:56:22;;;;;;;18.75;14.70;;;;;;;23.01;41.28;99641.72;344444;28;1835;-88
2022/05/05 00:56:34;;;;;;;17.42;14.70;;;;;;;23.05;41.05;99640.53;345150;28;1153;-88
2022/05/05 00:56:47;;;;;;;18.27;15.10;;;;;;;23.07;40.97;99640.41;344800;28;1180;-88
2022/05/05 00:56:59;;;;;;;18.92;14.75;;;;;;;23.03;41.27;99639.81;342160;28;1901;-87
2022/05/05 00:57:13;;;;;;;18.77;14.68;;;;;;;23.06;40.92;99639.56;342514;28;860;-88
2022/05/05 00:57:25;;;;;;;18.67;14.90;;;;;;;23.06;41.24;99644.00;341870;28;1938;-87
2022/05/05 00:57:37;;;;;;;18.85;15.32;;;;;;;23.06;41.27;99647.53;343500;28;1141;-89
2022/05/05 00:57:50;;;;;;;18.42;14.70;;;;;;;23.04;41.40;99638.84;346851;28;990;-87
2022/05/05 00:58:03;;;;;;;17.95;14.52;;;;;;;22.91;41.61;99635.53;347595;28;1451;-87
2022/05/05 00:58:15;;;;;;;18.27;14.70;;;;;;;22.90;41.23;99639.16;343431;28;1911;-87
2022/05/05 00:58:27;;;;;;;20.33;15.00;;;;;;;22.83;41.33;99635.31;343770;28;1256;-88
2022/05/05 00:58:42;;;;;;;20.90;15.35;;;;;;;22.86;41.46;99638.56;343822;28;1080;-88
2022/05/05 00:58:57;;;;;;;19.40;15.27;;;;;;;22.80;41.61;99638.22;343889;28;957;-87
2022/05/05 00:59:15;;;;;;;18.00;14.75;;;;;;;22.87;41.56;99644.69;342255;28;1047;-87
2022/05/05 00:59:28;;;;;;;18.15;14.88;;;;;;;22.78;42.08;99640.16;342261;28;1847;-87
2022/05/05 00:59:42;;;;;;;18.73;14.95;;;;;;;22.78;41.62;99641.03;342623;28;971;-87
2022/05/05 00:59:55;;;;;;;18.63;15.05;;;;;;;22.78;41.58;99634.84;343669;28;1027;-87
2022/05/05 01:00:09;;;;;;;18.77;15.18;;;;;;;22.76;41.74;99642.97;345260;28;1010;-87
2022/05/05 01:00:21;;;;;;;18.63;14.98;;;;;;;22.73;42.01;99641.38;345255;28;1847;-88
2022/05/05 01:00:34;;;;;;;18.08;14.68;;;;;;;22.79;41.58;99641.84;344812;28;729;-87
2022/05/05 01:00:46;;;;;;;18.63;15.00;;;;;;;22.75;41.85;99641.25;344437;28;1127;-87
2022/05/05 01:01:04;;;;;;;18.75;14.98;;;;;;;22.80;42.02;99638.22;343857;28;925;-86
2022/05/05 01:01:21;;;;;;;17.35;14.25;;;;;;;22.85;41.53;99644.00;344988;28;1183;-87
2022/05/05 01:01:34;;;;;;;18.00;14.52;;;;;;;22.86;41.57;99643.88;346307;28;1214;-88
2022/05/05 01:01:46;;;;;;;18.85;14.52;;;;;;;22.76;41.93;99644.75;347042;28;801;-88
2022/05/05 01:01:58;;;;;;;18.40;14.43;;;;;;;22.78;41.62;99640.16;345194;28;1151;-86
2022/05/05 01:02:12;;;;;;;17.92;14.20;;;;;;;22.64;42.23;99649.28;345568;28;1008;-87
2022/05/05 01:02:24;;;;;;;18.23;14.18;;;;;;;22.70;42.03;99644.31;346480;28;1318;-87
2022/05/05 01:02:37;;;;;;;18.42;14.65;;;;;;;22.78;41.87;99641.03;346352;28;1830;-87
2022/05/05 01:02:51;;;;;;;19.05;15.25;;;;;;;22.78;41.75;99643.66;346354;28;746;-87
2022/05/05 01:03:03;;;;;;;18.52;15.50;;;;;;;22.73;42.11;99645.84;346296;28;1067;-88
2022/05/05 01:03:15;;;;;;;18.58;15.48;;;;;;;22.70;42.04;99644.31;348055;28;965;-87
2022/05/05 01:03:27;;;;;;;17.88;14.70;;;;;;;22.65;42.09;99646.47;345796;28;766;-87
2022/05/05 01:03:40;;;;;;;18.05;14.88;;;;;;;22.61;42.15;99645.06;345685;28;797;-87
2022/05/05 01:03:53;;;;;;;17.67;14.90;;;;;;;22.62;41.75;99641.47;343797;28;1135;-87